sensor_id;sensor_type;location;lat;lon;timestamp;temperature;humidity
30764;DHT22;17497;51.476;7.770;2022-11-20T00:00:55;-1.30;99.90
30764;DHT22;17497;51.476;7.770;2022-11-20T00:03:22;-1.30;99.90
30764;DHT22;17497;51.476;7.770;2022-11-20T00:05:49;-1.30;99.90
30764;DHT22;17497;51.476;7.770;2022-11-20T00:08:15;-1.30;99.90
30764;DHT22;17497;51.476;7.770;2022-11-20T00:10:42;-1.30;99.90
30764;DHT22;17497;51.476;7.770;2022-11-20T00:13:09;-1.30;99.90
30764;DHT22;17497;51.476;7.770;2022-11-20T00:15:35;-1.30;99.90
30764;DHT22;17497;51.476;7.770;2022-11-20T00:18:02;-1.40;99.90
30764;DHT22;17497;51.476;7.770;2022-11-20T00:20:29;-1.40;99.90
30764;DHT22;17497;51.476;7.770;2022-11-20T00:22:56;-1.40;99.90
30764;DHT22;17497;51.476;7.770;2022-11-20T00:25:23;-1.40;99.90
30764;DHT22;17497;51.476;7.770;2022-11-20T00:27:50;-1.40;99.90
30764;DHT22;17497;51.476;7.770;2022-11-20T00:30:17;-1.50;99.90
30764;DHT22;17497;51.476;7.770;2022-11-20T00:32:43;-1.60;99.90
30764;DHT22;17497;51.476;7.770;2022-11-20T00:35:10;-1.60;99.90
30764;DHT22;17497;51.476;7.770;2022-11-20T00:37:37;-1.70;99.90
30764;DHT22;17497;51.476;7.770;2022-11-20T00:40:06;-1.70;99.90
30764;DHT22;17497;51.476;7.770;2022-11-20T00:45:07;-1.80;99.90
30764;DHT22;17497;51.476;7.770;2022-11-20T00:47:34;-1.80;99.90
30764;DHT22;17497;51.476;7.770;2022-11-20T00:50:00;-1.80;99.90
30764;DHT22;17497;51.476;7.770;2022-11-20T00:52:27;-1.90;99.90
30764;DHT22;17497;51.476;7.770;2022-11-20T00:54:54;-1.80;99.90
30764;DHT22;17497;51.476;7.770;2022-11-20T00:57:20;-1.80;99.90
30764;DHT22;17497;51.476;7.770;2022-11-20T00:59:47;-1.80;99.90
30764;DHT22;17497;51.476;7.770;2022-11-20T01:02:14;-1.80;99.90
30764;DHT22;17497;51.476;7.770;2022-11-20T01:04:42;-1.80;99.90
30764;DHT22;17497;51.476;7.770;2022-11-20T01:07:09;-1.80;99.90
30764;DHT22;17497;51.476;7.770;2022-11-20T01:09:36;-1.70;99.90
30764;DHT22;17497;51.476;7.770;2022-11-20T01:12:03;-1.60;99.90
30764;DHT22;17497;51.476;7.770;2022-11-20T01:14:30;-1.60;99.90
30764;DHT22;17497;51.476;7.770;2022-11-20T01:16:56;-1.50;99.90
30764;DHT22;17497;51.476;7.770;2022-11-20T01:19:23;-1.30;99.90
30764;DHT22;17497;51.476;7.770;2022-11-20T01:21:53;-1.20;99.90
30764;DHT22;17497;51.476;7.770;2022-11-20T01:24:21;-1.00;99.90
30764;DHT22;17497;51.476;7.770;2022-11-20T01:26:50;-0.90;99.90
30764;DHT22;17497;51.476;7.770;2022-11-20T01:29:22;-0.90;99.90
30764;DHT22;17497;51.476;7.770;2022-11-20T01:31:51;-0.80;99.90
30764;DHT22;17497;51.476;7.770;2022-11-20T01:34:20;-0.70;99.90
30764;DHT22;17497;51.476;7.770;2022-11-20T01:36:48;-0.60;99.90
30764;DHT22;17497;51.476;7.770;2022-11-20T01:39:18;-0.50;99.90
30764;DHT22;17497;51.476;7.770;2022-11-20T01:41:47;-0.40;99.90
30764;DHT22;17497;51.476;7.770;2022-11-20T01:44:49;-0.50;99.90
30764;DHT22;17497;51.476;7.770;2022-11-20T01:47:32;-0.40;99.90
30764;DHT22;17497;51.476;7.770;2022-11-20T01:52:34;-0.30;99.90
30764;DHT22;17497;51.476;7.770;2022-11-20T01:55:11;-0.30;99.90
30764;DHT22;17497;51.476;7.770;2022-11-20T01:57:40;-0.20;99.90
30764;DHT22;17497;51.476;7.770;2022-11-20T02:00:10;-0.20;99.90
30764;DHT22;17497;51.476;7.770;2022-11-20T02:02:39;-0.10;99.90
30764;DHT22;17497;51.476;7.770;2022-11-20T02:05:17;-0.20;99.90
30764;DHT22;17497;51.476;7.770;2022-11-20T02:07:46;-0.10;99.90
30764;DHT22;17497;51.476;7.770;2022-11-20T02:10:14;-0.10;99.90
30764;DHT22;17497;51.476;7.770;2022-11-20T02:12:40;-0.20;99.90
30764;DHT22;17497;51.476;7.770;2022-11-20T02:15:26;-0.10;99.90
30764;DHT22;17497;51.476;7.770;2022-11-20T02:17:56;-0.20;99.90
30764;DHT22;17497;51.476;7.770;2022-11-20T02:20:22;-0.20;99.90
30764;DHT22;17497;51.476;7.770;2022-11-20T02:23:05;-0.20;99.90
30764;DHT22;17497;51.476;7.770;2022-11-20T02:25:35;-0.30;99.90
30764;DHT22;17497;51.476;7.770;2022-11-20T02:28:04;-0.20;99.90
30764;DHT22;17497;51.476;7.770;2022-11-20T02:30:31;-0.10;99.90
30764;DHT22;17497;51.476;7.770;2022-11-20T02:32:58;-0.10;99.90
30764;DHT22;17497;51.476;7.770;2022-11-20T02:37:54;0.00;99.90
30764;DHT22;17497;51.476;7.770;2022-11-20T02:40:21;0.10;99.90
30764;DHT22;17497;51.476;7.770;2022-11-20T02:42:52;0.10;99.90
30764;DHT22;17497;51.476;7.770;2022-11-20T02:45:19;0.20;99.90
30764;DHT22;17497;51.476;7.770;2022-11-20T02:47:46;0.20;99.90
30764;DHT22;17497;51.476;7.770;2022-11-20T02:50:12;0.20;99.90
30764;DHT22;17497;51.476;7.770;2022-11-20T02:52:39;0.30;99.90
30764;DHT22;17497;51.476;7.770;2022-11-20T02:55:06;0.30;99.90
30764;DHT22;17497;51.476;7.770;2022-11-20T02:57:33;0.30;99.90
30764;DHT22;17497;51.476;7.770;2022-11-20T03:00:00;0.30;99.90
30764;DHT22;17497;51.476;7.770;2022-11-20T03:02:30;0.30;99.90
30764;DHT22;17497;51.476;7.770;2022-11-20T03:04:57;0.30;99.90
30764;DHT22;17497;51.476;7.770;2022-11-20T03:07:24;0.40;99.90
30764;DHT22;17497;51.476;7.770;2022-11-20T03:09:51;0.50;99.90
30764;DHT22;17497;51.476;7.770;2022-11-20T03:12:17;0.40;99.90
30764;DHT22;17497;51.476;7.770;2022-11-20T03:14:44;0.50;99.90
30764;DHT22;17497;51.476;7.770;2022-11-20T03:17:18;0.50;99.90
30764;DHT22;17497;51.476;7.770;2022-11-20T03:19:44;0.50;99.90
30764;DHT22;17497;51.476;7.770;2022-11-20T03:22:11;0.40;99.90
30764;DHT22;17497;51.476;7.770;2022-11-20T03:24:38;0.40;99.90
30764;DHT22;17497;51.476;7.770;2022-11-20T03:27:05;0.50;99.90
30764;DHT22;17497;51.476;7.770;2022-11-20T03:29:31;0.50;99.90
30764;DHT22;17497;51.476;7.770;2022-11-20T03:31:58;0.60;99.90
30764;DHT22;17497;51.476;7.770;2022-11-20T03:34:25;0.60;99.90
30764;DHT22;17497;51.476;7.770;2022-11-20T03:36:52;0.60;99.90
30764;DHT22;17497;51.476;7.770;2022-11-20T03:39:18;0.60;99.90
30764;DHT22;17497;51.476;7.770;2022-11-20T03:41:45;0.70;99.90
30764;DHT22;17497;51.476;7.770;2022-11-20T03:44:12;0.80;99.90
30764;DHT22;17497;51.476;7.770;2022-11-20T03:46:39;0.80;99.90
30764;DHT22;17497;51.476;7.770;2022-11-20T03:49:06;0.80;99.90
30764;DHT22;17497;51.476;7.770;2022-11-20T03:51:34;0.90;99.90
30764;DHT22;17497;51.476;7.770;2022-11-20T03:54:08;0.90;99.90
30764;DHT22;17497;51.476;7.770;2022-11-20T03:59:41;0.70;99.90
30764;DHT22;17497;51.476;7.770;2022-11-20T04:02:08;0.80;99.90
30764;DHT22;17497;51.476;7.770;2022-11-20T04:04:35;0.70;99.90
30764;DHT22;17497;51.476;7.770;2022-11-20T04:07:02;0.70;99.90
30764;DHT22;17497;51.476;7.770;2022-11-20T04:09:29;0.70;99.90
30764;DHT22;17497;51.476;7.770;2022-11-20T04:11:55;0.70;99.90
30764;DHT22;17497;51.476;7.770;2022-11-20T04:14:22;0.80;99.90
30764;DHT22;17497;51.476;7.770;2022-11-20T04:16:49;0.80;99.90
30764;DHT22;17497;51.476;7.770;2022-11-20T04:19:16;0.80;99.90
30764;DHT22;17497;51.476;7.770;2022-11-20T04:21:43;0.80;99.90
30764;DHT22;17497;51.476;7.770;2022-11-20T04:24:10;0.80;99.90
30764;DHT22;17497;51.476;7.770;2022-11-20T04:26:37;0.80;99.90
30764;DHT22;17497;51.476;7.770;2022-11-20T04:29:04;0.90;99.90
30764;DHT22;17497;51.476;7.770;2022-11-20T04:31:33;0.90;99.90
30764;DHT22;17497;51.476;7.770;2022-11-20T04:34:05;0.90;99.90
30764;DHT22;17497;51.476;7.770;2022-11-20T04:36:32;1.00;99.90
30764;DHT22;17497;51.476;7.770;2022-11-20T04:39:03;1.00;99.90
30764;DHT22;17497;51.476;7.770;2022-11-20T04:41:33;1.00;99.90
30764;DHT22;17497;51.476;7.770;2022-11-20T04:44:01;1.00;99.90
30764;DHT22;17497;51.476;7.770;2022-11-20T04:46:34;1.10;99.90
30764;DHT22;17497;51.476;7.770;2022-11-20T04:49:01;1.10;99.90
30764;DHT22;17497;51.476;7.770;2022-11-20T04:51:28;1.10;99.90
30764;DHT22;17497;51.476;7.770;2022-11-20T04:53:54;1.10;99.90
30764;DHT22;17497;51.476;7.770;2022-11-20T04:56:22;1.10;99.90
30764;DHT22;17497;51.476;7.770;2022-11-20T04:58:49;1.10;99.90
30764;DHT22;17497;51.476;7.770;2022-11-20T05:01:21;1.10;99.90
30764;DHT22;17497;51.476;7.770;2022-11-20T05:03:48;1.10;99.90
30764;DHT22;17497;51.476;7.770;2022-11-20T05:06:16;1.20;99.90
30764;DHT22;17497;51.476;7.770;2022-11-20T05:08:43;1.20;99.90
30764;DHT22;17497;51.476;7.770;2022-11-20T05:11:15;1.20;99.90
30764;DHT22;17497;51.476;7.770;2022-11-20T05:13:43;1.10;99.90
30764;DHT22;17497;51.476;7.770;2022-11-20T05:16:21;1.20;99.90
30764;DHT22;17497;51.476;7.770;2022-11-20T05:18:49;1.20;99.90
30764;DHT22;17497;51.476;7.770;2022-11-20T05:21:16;1.20;99.90
30764;DHT22;17497;51.476;7.770;2022-11-20T05:23:44;1.20;99.90
30764;DHT22;17497;51.476;7.770;2022-11-20T05:26:15;1.20;99.90
30764;DHT22;17497;51.476;7.770;2022-11-20T05:28:43;1.20;99.90
30764;DHT22;17497;51.476;7.770;2022-11-20T05:31:12;1.20;99.90
30764;DHT22;17497;51.476;7.770;2022-11-20T05:33:40;1.30;99.90
30764;DHT22;17497;51.476;7.770;2022-11-20T05:36:08;1.30;99.90
30764;DHT22;17497;51.476;7.770;2022-11-20T05:38:35;1.30;99.90
30764;DHT22;17497;51.476;7.770;2022-11-20T05:41:16;1.20;99.90
30764;DHT22;17497;51.476;7.770;2022-11-20T05:43:44;1.20;99.90
30764;DHT22;17497;51.476;7.770;2022-11-20T05:46:14;1.20;99.90
30764;DHT22;17497;51.476;7.770;2022-11-20T05:48:42;1.20;99.90
30764;DHT22;17497;51.476;7.770;2022-11-20T05:51:11;1.10;99.90
30764;DHT22;17497;51.476;7.770;2022-11-20T05:53:37;1.00;99.90
30764;DHT22;17497;51.476;7.770;2022-11-20T05:56:17;1.00;99.90
30764;DHT22;17497;51.476;7.770;2022-11-20T05:58:45;1.00;99.90
30764;DHT22;17497;51.476;7.770;2022-11-20T06:01:17;1.00;99.90
30764;DHT22;17497;51.476;7.770;2022-11-20T06:03:45;1.00;99.90
30764;DHT22;17497;51.476;7.770;2022-11-20T06:06:14;0.90;99.90
30764;DHT22;17497;51.476;7.770;2022-11-20T06:08:41;0.90;99.90
30764;DHT22;17497;51.476;7.770;2022-11-20T06:11:10;0.90;99.90
30764;DHT22;17497;51.476;7.770;2022-11-20T06:13:38;0.80;99.90
30764;DHT22;17497;51.476;7.770;2022-11-20T06:16:08;0.70;99.90
30764;DHT22;17497;51.476;7.770;2022-11-20T06:18:35;0.60;99.90
30764;DHT22;17497;51.476;7.770;2022-11-20T06:21:07;0.50;99.90
30764;DHT22;17497;51.476;7.770;2022-11-20T06:23:35;0.50;99.90
30764;DHT22;17497;51.476;7.770;2022-11-20T06:26:06;0.40;99.90
30764;DHT22;17497;51.476;7.770;2022-11-20T06:28:33;0.40;99.90
30764;DHT22;17497;51.476;7.770;2022-11-20T06:31:00;0.40;99.90
30764;DHT22;17497;51.476;7.770;2022-11-20T06:33:27;0.30;99.90
30764;DHT22;17497;51.476;7.770;2022-11-20T06:35:59;0.30;99.90
30764;DHT22;17497;51.476;7.770;2022-11-20T06:38:32;0.30;99.90
30764;DHT22;17497;51.476;7.770;2022-11-20T06:40:59;0.40;99.90
30764;DHT22;17497;51.476;7.770;2022-11-20T06:43:28;0.40;99.90
30764;DHT22;17497;51.476;7.770;2022-11-20T06:45:56;0.40;99.90
30764;DHT22;17497;51.476;7.770;2022-11-20T06:48:25;0.40;99.90
30764;DHT22;17497;51.476;7.770;2022-11-20T06:50:52;0.40;99.90
30764;DHT22;17497;51.476;7.770;2022-11-20T06:53:19;0.40;99.90
30764;DHT22;17497;51.476;7.770;2022-11-20T06:55:46;0.50;99.90
30764;DHT22;17497;51.476;7.770;2022-11-20T06:58:14;0.50;99.90
30764;DHT22;17497;51.476;7.770;2022-11-20T07:00:41;0.50;99.90
30764;DHT22;17497;51.476;7.770;2022-11-20T07:03:09;0.50;99.90
30764;DHT22;17497;51.476;7.770;2022-11-20T07:05:37;0.50;99.90
30764;DHT22;17497;51.476;7.770;2022-11-20T07:08:05;0.40;99.90
30764;DHT22;17497;51.476;7.770;2022-11-20T07:10:32;0.40;99.90
30764;DHT22;17497;51.476;7.770;2022-11-20T07:12:59;0.40;99.90
30764;DHT22;17497;51.476;7.770;2022-11-20T07:15:26;0.40;99.90
30764;DHT22;17497;51.476;7.770;2022-11-20T07:17:53;0.30;99.90
30764;DHT22;17497;51.476;7.770;2022-11-20T07:20:20;0.30;99.90
30764;DHT22;17497;51.476;7.770;2022-11-20T07:22:56;0.20;99.90
30764;DHT22;17497;51.476;7.770;2022-11-20T07:25:27;0.20;99.90
30764;DHT22;17497;51.476;7.770;2022-11-20T07:27:58;0.20;99.90
30764;DHT22;17497;51.476;7.770;2022-11-20T07:30:25;0.30;99.90
30764;DHT22;17497;51.476;7.770;2022-11-20T07:32:54;0.30;99.90
30764;DHT22;17497;51.476;7.770;2022-11-20T07:35:21;0.30;99.90
30764;DHT22;17497;51.476;7.770;2022-11-20T07:37:48;0.30;99.90
30764;DHT22;17497;51.476;7.770;2022-11-20T07:40:16;0.30;99.90
30764;DHT22;17497;51.476;7.770;2022-11-20T07:42:49;0.30;99.90
30764;DHT22;17497;51.476;7.770;2022-11-20T07:45:17;0.30;99.90
30764;DHT22;17497;51.476;7.770;2022-11-20T07:47:44;0.40;99.90
30764;DHT22;17497;51.476;7.770;2022-11-20T07:50:12;0.40;99.90
30764;DHT22;17497;51.476;7.770;2022-11-20T07:52:39;0.40;99.90
30764;DHT22;17497;51.476;7.770;2022-11-20T07:55:06;0.40;99.90
30764;DHT22;17497;51.476;7.770;2022-11-20T07:57:33;0.50;99.90
30764;DHT22;17497;51.476;7.770;2022-11-20T08:00:00;0.50;99.90
30764;DHT22;17497;51.476;7.770;2022-11-20T08:02:27;0.50;99.90
30764;DHT22;17497;51.476;7.770;2022-11-20T08:04:54;0.60;99.90
30764;DHT22;17497;51.476;7.770;2022-11-20T08:07:20;0.60;99.90
30764;DHT22;17497;51.476;7.770;2022-11-20T08:09:47;0.60;99.90
30764;DHT22;17497;51.476;7.770;2022-11-20T08:12:19;0.70;99.90
30764;DHT22;17497;51.476;7.770;2022-11-20T08:15:06;0.70;99.90
30764;DHT22;17497;51.476;7.770;2022-11-20T08:17:39;0.80;99.90
30764;DHT22;17497;51.476;7.770;2022-11-20T08:20:06;0.80;99.90
30764;DHT22;17497;51.476;7.770;2022-11-20T08:22:33;0.80;99.90
30764;DHT22;17497;51.476;7.770;2022-11-20T08:25:00;0.70;99.90
30764;DHT22;17497;51.476;7.770;2022-11-20T08:27:27;0.70;99.90
30764;DHT22;17497;51.476;7.770;2022-11-20T08:29:54;0.60;99.90
30764;DHT22;17497;51.476;7.770;2022-11-20T08:32:20;0.60;99.90
30764;DHT22;17497;51.476;7.770;2022-11-20T08:34:47;0.60;99.90
30764;DHT22;17497;51.476;7.770;2022-11-20T08:37:14;0.60;99.90
30764;DHT22;17497;51.476;7.770;2022-11-20T08:39:41;0.60;99.90
30764;DHT22;17497;51.476;7.770;2022-11-20T08:42:08;0.70;99.90
30764;DHT22;17497;51.476;7.770;2022-11-20T08:44:35;0.80;99.90
30764;DHT22;17497;51.476;7.770;2022-11-20T08:47:02;0.90;99.90
30764;DHT22;17497;51.476;7.770;2022-11-20T08:49:29;0.90;99.90
30764;DHT22;17497;51.476;7.770;2022-11-20T08:51:56;1.00;99.90
30764;DHT22;17497;51.476;7.770;2022-11-20T08:54:23;1.10;99.90
30764;DHT22;17497;51.476;7.770;2022-11-20T08:56:50;1.20;99.90
30764;DHT22;17497;51.476;7.770;2022-11-20T08:59:16;1.30;99.90
30764;DHT22;17497;51.476;7.770;2022-11-20T09:02:03;1.40;99.90
30764;DHT22;17497;51.476;7.770;2022-11-20T09:04:30;1.60;99.90
30764;DHT22;17497;51.476;7.770;2022-11-20T09:06:56;1.90;99.90
30764;DHT22;17497;51.476;7.770;2022-11-20T09:09:23;2.00;99.90
30764;DHT22;17497;51.476;7.770;2022-11-20T09:11:50;2.20;99.90
30764;DHT22;17497;51.476;7.770;2022-11-20T09:14:17;2.30;99.90
30764;DHT22;17497;51.476;7.770;2022-11-20T09:16:45;2.50;99.90
30764;DHT22;17497;51.476;7.770;2022-11-20T09:19:12;2.60;99.90
30764;DHT22;17497;51.476;7.770;2022-11-20T09:21:59;2.80;99.90
30764;DHT22;17497;51.476;7.770;2022-11-20T09:24:27;3.00;99.90
30764;DHT22;17497;51.476;7.770;2022-11-20T09:26:54;3.20;99.90
30764;DHT22;17497;51.476;7.770;2022-11-20T09:29:21;3.40;99.90
30764;DHT22;17497;51.476;7.770;2022-11-20T09:31:48;3.60;99.90
30764;DHT22;17497;51.476;7.770;2022-11-20T09:34:15;3.60;99.90
30764;DHT22;17497;51.476;7.770;2022-11-20T09:36:41;3.80;99.90
30764;DHT22;17497;51.476;7.770;2022-11-20T09:39:08;3.90;99.90
30764;DHT22;17497;51.476;7.770;2022-11-20T09:53:23;4.10;99.90
30764;DHT22;17497;51.476;7.770;2022-11-20T09:55:54;4.50;99.90
30764;DHT22;17497;51.476;7.770;2022-11-20T09:58:45;4.80;99.90
30764;DHT22;17497;51.476;7.770;2022-11-20T10:01:20;5.00;99.90
30764;DHT22;17497;51.476;7.770;2022-11-20T10:06:34;5.30;99.90
30764;DHT22;17497;51.476;7.770;2022-11-20T10:19:44;5.60;99.90
30764;DHT22;17497;51.476;7.770;2022-11-20T10:22:29;5.60;99.90
30764;DHT22;17497;51.476;7.770;2022-11-20T10:25:21;5.90;99.90
30764;DHT22;17497;51.476;7.770;2022-11-20T10:30:59;5.80;99.90
30764;DHT22;17497;51.476;7.770;2022-11-20T10:33:31;5.50;99.90
30764;DHT22;17497;51.476;7.770;2022-11-20T10:36:26;5.30;99.90
30764;DHT22;17497;51.476;7.770;2022-11-20T10:38:54;5.10;99.90
30764;DHT22;17497;51.476;7.770;2022-11-20T10:41:42;4.80;99.90
30764;DHT22;17497;51.476;7.770;2022-11-20T10:44:17;4.40;99.90
30764;DHT22;17497;51.476;7.770;2022-11-20T10:47:14;4.30;99.90
30764;DHT22;17497;51.476;7.770;2022-11-20T10:49:42;4.00;99.90
30764;DHT22;17497;51.476;7.770;2022-11-20T11:01:20;3.50;99.90
30764;DHT22;17497;51.476;7.770;2022-11-20T11:03:52;3.50;99.90
30764;DHT22;17497;51.476;7.770;2022-11-20T11:06:21;3.40;99.90
30764;DHT22;17497;51.476;7.770;2022-11-20T11:08:53;3.50;99.90
30764;DHT22;17497;51.476;7.770;2022-11-20T11:11:25;3.70;99.90
30764;DHT22;17497;51.476;7.770;2022-11-20T11:13:53;3.80;99.90
30764;DHT22;17497;51.476;7.770;2022-11-20T11:16:30;3.80;99.90
30764;DHT22;17497;51.476;7.770;2022-11-20T11:19:12;3.90;99.90
30764;DHT22;17497;51.476;7.770;2022-11-20T11:21:47;4.10;99.90
30764;DHT22;17497;51.476;7.770;2022-11-20T11:24:23;4.20;99.90
30764;DHT22;17497;51.476;7.770;2022-11-20T11:27:14;4.00;99.90
30764;DHT22;17497;51.476;7.770;2022-11-20T11:29:47;3.70;99.90
30764;DHT22;17497;51.476;7.770;2022-11-20T11:32:21;3.80;99.90
30764;DHT22;17497;51.476;7.770;2022-11-20T11:35:25;3.80;99.90
30764;DHT22;17497;51.476;7.770;2022-11-20T11:37:54;3.70;99.90
30764;DHT22;17497;51.476;7.770;2022-11-20T11:40:22;3.70;99.90
30764;DHT22;17497;51.476;7.770;2022-11-20T11:42:58;3.60;99.90
30764;DHT22;17497;51.476;7.770;2022-11-20T11:45:26;3.60;99.90
30764;DHT22;17497;51.476;7.770;2022-11-20T11:47:58;3.60;99.90
30764;DHT22;17497;51.476;7.770;2022-11-20T11:50:28;3.60;99.90
30764;DHT22;17497;51.476;7.770;2022-11-20T11:53:15;3.50;99.90
30764;DHT22;17497;51.476;7.770;2022-11-20T12:01:02;3.40;99.90
30764;DHT22;17497;51.476;7.770;2022-11-20T12:03:36;3.60;99.90
30764;DHT22;17497;51.476;7.770;2022-11-20T12:06:16;3.80;99.90
30764;DHT22;17497;51.476;7.770;2022-11-20T12:09:02;3.90;99.90
30764;DHT22;17497;51.476;7.770;2022-11-20T12:14:32;4.10;99.90
30764;DHT22;17497;51.476;7.770;2022-11-20T12:16:56;4.10;99.90
30764;DHT22;17497;51.476;7.770;2022-11-20T12:19:24;4.40;99.90
30764;DHT22;17497;51.476;7.770;2022-11-20T12:27:59;4.80;99.90
30764;DHT22;17497;51.476;7.770;2022-11-20T12:30:32;4.90;99.90
30764;DHT22;17497;51.476;7.770;2022-11-20T12:35:48;5.00;99.90
30764;DHT22;17497;51.476;7.770;2022-11-20T12:43:56;5.30;99.90
30764;DHT22;17497;51.476;7.770;2022-11-20T12:46:51;5.40;
30764;DHT22;17497;51.476;7.770;2022-11-20T12:49:54;5.50;99.90
30764;DHT22;17497;51.476;7.770;2022-11-20T12:52:37;5.80;99.90
30764;DHT22;17497;51.476;7.770;2022-11-20T13:00:58;6.20;99.90
30764;DHT22;17497;51.476;7.770;2022-11-20T13:03:43;6.40;99.90
30764;DHT22;17497;51.476;7.770;2022-11-20T13:06:18;6.40;99.90
30764;DHT22;17497;51.476;7.770;2022-11-20T13:08:54;6.40;99.90
30764;DHT22;17497;51.476;7.770;2022-11-20T13:11:37;6.20;99.90
30764;DHT22;17497;51.476;7.770;2022-11-20T13:19:35;5.60;99.90
30764;DHT22;17497;51.476;7.770;2022-11-20T13:22:02;5.50;99.90
30764;DHT22;17497;51.476;7.770;2022-11-20T13:24:31;5.50;99.90
30764;DHT22;17497;51.476;7.770;2022-11-20T13:29:44;5.40;99.90
30764;DHT22;17497;51.476;7.770;2022-11-20T13:34:57;5.30;99.90
30764;DHT22;17497;51.476;7.770;2022-11-20T13:37:34;5.20;99.90
30764;DHT22;17497;51.476;7.770;2022-11-20T13:42:45;5.10;99.90
30764;DHT22;17497;51.476;7.770;2022-11-20T13:45:31;5.10;99.90
30764;DHT22;17497;51.476;7.770;2022-11-20T13:48:22;5.00;99.90
30764;DHT22;17497;51.476;7.770;2022-11-20T13:51:08;5.00;99.90
30764;DHT22;17497;51.476;7.770;2022-11-20T13:53:53;4.90;99.90
30764;DHT22;17497;51.476;7.770;2022-11-20T13:59:32;4.90;99.90
30764;DHT22;17497;51.476;7.770;2022-11-20T14:02:13;4.80;99.90
30764;DHT22;17497;51.476;7.770;2022-11-20T14:04:44;4.80;99.90
30764;DHT22;17497;51.476;7.770;2022-11-20T14:07:12;4.80;99.90
30764;DHT22;17497;51.476;7.770;2022-11-20T14:09:50;4.70;99.90
30764;DHT22;17497;51.476;7.770;2022-11-20T14:12:19;4.70;99.90
30764;DHT22;17497;51.476;7.770;2022-11-20T14:14:53;4.50;99.90
30764;DHT22;17497;51.476;7.770;2022-11-20T14:17:24;4.50;99.90
30764;DHT22;17497;51.476;7.770;2022-11-20T14:19:59;4.40;99.90
30764;DHT22;17497;51.476;7.770;2022-11-20T14:22:28;4.50;99.90
30764;DHT22;17497;51.476;7.770;2022-11-20T14:25:22;4.50;99.90
30764;DHT22;17497;51.476;7.770;2022-11-20T14:27:56;4.50;99.90
30764;DHT22;17497;51.476;7.770;2022-11-20T14:30:26;4.50;99.90
30764;DHT22;17497;51.476;7.770;2022-11-20T14:32:55;4.40;99.90
30764;DHT22;17497;51.476;7.770;2022-11-20T14:35:34;4.40;99.90
30764;DHT22;17497;51.476;7.770;2022-11-20T14:38:01;4.30;99.90
30764;DHT22;17497;51.476;7.770;2022-11-20T14:40:35;4.30;99.90
30764;DHT22;17497;51.476;7.770;2022-11-20T14:43:20;4.40;99.90
30764;DHT22;17497;51.476;7.770;2022-11-20T14:45:56;4.40;99.90
30764;DHT22;17497;51.476;7.770;2022-11-20T14:48:31;4.40;99.90
30764;DHT22;17497;51.476;7.770;2022-11-20T14:50:58;4.40;99.90
30764;DHT22;17497;51.476;7.770;2022-11-20T14:53:25;4.50;99.90
30764;DHT22;17497;51.476;7.770;2022-11-20T14:56:00;4.50;99.90
30764;DHT22;17497;51.476;7.770;2022-11-20T14:58:30;4.50;99.90
30764;DHT22;17497;51.476;7.770;2022-11-20T15:01:03;4.50;99.90
30764;DHT22;17497;51.476;7.770;2022-11-20T15:03:40;4.50;99.90
30764;DHT22;17497;51.476;7.770;2022-11-20T15:06:10;4.50;99.90
30764;DHT22;17497;51.476;7.770;2022-11-20T15:08:37;4.50;99.90
30764;DHT22;17497;51.476;7.770;2022-11-20T15:11:19;4.50;99.90
30764;DHT22;17497;51.476;7.770;2022-11-20T15:13:47;4.40;99.90
30764;DHT22;17497;51.476;7.770;2022-11-20T15:16:18;4.40;99.90
30764;DHT22;17497;51.476;7.770;2022-11-20T15:18:45;4.40;99.90
30764;DHT22;17497;51.476;7.770;2022-11-20T15:21:14;4.40;99.90
30764;DHT22;17497;51.476;7.770;2022-11-20T15:23:42;4.40;99.90
30764;DHT22;17497;51.476;7.770;2022-11-20T15:26:10;4.40;99.90
30764;DHT22;17497;51.476;7.770;2022-11-20T15:28:46;4.30;99.90
30764;DHT22;17497;51.476;7.770;2022-11-20T15:31:16;4.30;99.90
30764;DHT22;17497;51.476;7.770;2022-11-20T15:33:43;4.30;99.90
30764;DHT22;17497;51.476;7.770;2022-11-20T15:36:10;4.30;99.90
30764;DHT22;17497;51.476;7.770;2022-11-20T15:38:37;4.30;99.90
30764;DHT22;17497;51.476;7.770;2022-11-20T15:41:04;4.30;99.90
30764;DHT22;17497;51.476;7.770;2022-11-20T15:43:30;4.30;99.90
30764;DHT22;17497;51.476;7.770;2022-11-20T15:46:23;4.20;99.90
30764;DHT22;17497;51.476;7.770;2022-11-20T15:48:55;4.20;99.90
30764;DHT22;17497;51.476;7.770;2022-11-20T15:51:43;4.20;99.90
30764;DHT22;17497;51.476;7.770;2022-11-20T15:54:15;4.20;99.90
30764;DHT22;17497;51.476;7.770;2022-11-20T15:56:44;4.10;99.90
30764;DHT22;17497;51.476;7.770;2022-11-20T15:59:10;4.00;99.90
30764;DHT22;17497;51.476;7.770;2022-11-20T16:01:37;4.00;99.90
30764;DHT22;17497;51.476;7.770;2022-11-20T16:04:08;3.90;99.90
30764;DHT22;17497;51.476;7.770;2022-11-20T16:06:36;3.90;99.90
30764;DHT22;17497;51.476;7.770;2022-11-20T16:09:02;3.80;99.90
30764;DHT22;17497;51.476;7.770;2022-11-20T16:11:30;3.80;99.90
30764;DHT22;17497;51.476;7.770;2022-11-20T16:13:57;3.80;99.90
30764;DHT22;17497;51.476;7.770;2022-11-20T16:16:42;3.80;99.90
30764;DHT22;17497;51.476;7.770;2022-11-20T16:19:11;3.80;99.90
30764;DHT22;17497;51.476;7.770;2022-11-20T16:21:38;3.80;99.90
30764;DHT22;17497;51.476;7.770;2022-11-20T16:24:09;3.80;99.90
30764;DHT22;17497;51.476;7.770;2022-11-20T16:26:37;3.80;99.90
30764;DHT22;17497;51.476;7.770;2022-11-20T16:29:04;3.80;99.90
30764;DHT22;17497;51.476;7.770;2022-11-20T16:31:31;3.90;99.90
30764;DHT22;17497;51.476;7.770;2022-11-20T16:34:00;3.90;99.90
30764;DHT22;17497;51.476;7.770;2022-11-20T16:36:32;3.80;99.90
30764;DHT22;17497;51.476;7.770;2022-11-20T16:39:01;3.80;99.90
30764;DHT22;17497;51.476;7.770;2022-11-20T16:41:30;3.80;99.90
30764;DHT22;17497;51.476;7.770;2022-11-20T16:43:59;3.90;99.90
30764;DHT22;17497;51.476;7.770;2022-11-20T16:46:29;3.90;99.90
30764;DHT22;17497;51.476;7.770;2022-11-20T16:49:05;3.90;99.90
30764;DHT22;17497;51.476;7.770;2022-11-20T16:51:34;3.90;99.90
30764;DHT22;17497;51.476;7.770;2022-11-20T16:54:03;3.90;99.90
30764;DHT22;17497;51.476;7.770;2022-11-20T16:56:33;3.90;99.90
30764;DHT22;17497;51.476;7.770;2022-11-20T16:59:00;4.00;99.90
30764;DHT22;17497;51.476;7.770;2022-11-20T17:01:28;4.00;99.90
30764;DHT22;17497;51.476;7.770;2022-11-20T17:04:01;4.00;99.90
30764;DHT22;17497;51.476;7.770;2022-11-20T17:06:33;4.10;99.90
30764;DHT22;17497;51.476;7.770;2022-11-20T17:09:01;4.10;99.90
30764;DHT22;17497;51.476;7.770;2022-11-20T17:11:28;4.10;99.90
30764;DHT22;17497;51.476;7.770;2022-11-20T17:13:56;4.10;99.90
30764;DHT22;17497;51.476;7.770;2022-11-20T17:16:23;4.00;99.90
30764;DHT22;17497;51.476;7.770;2022-11-20T17:18:50;4.10;99.90
30764;DHT22;17497;51.476;7.770;2022-11-20T17:21:18;4.10;99.90
30764;DHT22;17497;51.476;7.770;2022-11-20T17:23:45;4.00;99.90
30764;DHT22;17497;51.476;7.770;2022-11-20T17:26:17;3.90;99.90
30764;DHT22;17497;51.476;7.770;2022-11-20T17:28:55;3.90;99.90
30764;DHT22;17497;51.476;7.770;2022-11-20T17:31:22;3.80;99.90
30764;DHT22;17497;51.476;7.770;2022-11-20T17:33:49;3.80;99.90
30764;DHT22;17497;51.476;7.770;2022-11-20T17:36:18;3.80;99.90
30764;DHT22;17497;51.476;7.770;2022-11-20T17:38:46;3.80;99.90